createdAt,value
2023-04-25T16:33:48.185Z,22.08
2023-04-25T16:34:00.452Z,22.11
2023-04-25T16:34:09.829Z,22.11
2023-04-25T16:34:20.344Z,22.11
2023-04-25T16:34:29.906Z,22.11
2023-04-25T16:34:39.813Z,22.08
2023-04-25T16:34:49.982Z,22.08
2023-04-25T16:35:02.707Z,22.02
2023-04-25T16:35:10.231Z,21.99
2023-04-25T16:35:30.365Z,21.91
2023-04-25T16:35:40.536Z,21.85
2023-04-25T16:35:50.611Z,21.81
2023-04-25T16:36:01.686Z,21.75
2023-04-25T16:36:10.944Z,21.73
2023-04-25T16:36:20.951Z,21.66
2023-04-25T16:36:31.114Z,21.58
2023-04-25T16:36:41.308Z,21.55
2023-04-25T16:36:51.334Z,21.51
2023-04-25T16:37:12.215Z,21.42
2023-04-25T16:37:22.685Z,21.40
2023-04-25T16:37:31.973Z,21.37
2023-04-25T16:37:41.869Z,21.34
2023-04-25T16:37:52.064Z,21.31
2023-04-25T16:38:02.224Z,21.28
2023-04-25T16:38:13.450Z,21.26
2023-04-25T16:38:23.469Z,21.26
2023-04-25T16:38:32.583Z,21.24
2023-04-25T16:38:42.679Z,21.22
2023-04-25T16:38:53.200Z,21.24
2023-04-25T16:39:03.063Z,21.21
2023-04-25T16:39:23.160Z,21.19
2023-04-25T16:39:33.388Z,21.21
2023-04-25T16:39:43.560Z,21.21
2023-04-25T16:39:53.561Z,21.21
2023-04-25T16:40:03.700Z,21.18
2023-04-25T16:40:13.791Z,21.18
2023-04-25T16:40:23.934Z,21.18
2023-04-25T16:40:35.066Z,21.18
2023-04-25T16:40:44.295Z,21.16
2023-04-25T16:40:54.356Z,21.18
2023-04-25T16:41:04.443Z,21.15
2023-04-25T16:41:14.527Z,21.11
2023-04-25T16:41:24.844Z,21.11
2023-04-25T16:41:45.092Z,21.09
2023-04-25T16:41:55.232Z,21.08
2023-04-25T16:42:05.341Z,21.06
2023-04-25T16:42:15.430Z,21.05
2023-04-25T16:42:25.424Z,21.01
2023-04-25T16:42:35.479Z,20.98
2023-04-25T16:42:45.730Z,20.98
2023-04-25T16:42:56.646Z,21.00
2023-04-25T16:43:06.594Z,20.98
2023-04-25T16:43:16.351Z,20.98
2023-04-25T16:43:26.289Z,20.98
2023-04-25T16:43:37.159Z,20.97
2023-04-25T16:43:46.437Z,20.97
2023-04-25T16:43:57.738Z,20.96
2023-04-25T16:44:06.989Z,20.94
2023-04-25T16:44:16.992Z,20.96
2023-04-25T16:44:26.881Z,20.94
2023-04-25T16:44:47.298Z,20.93
2023-04-25T16:44:57.176Z,20.93
2023-04-25T16:45:07.455Z,20.93
2023-04-25T16:45:17.688Z,20.94
2023-04-25T16:45:27.568Z,20.96
2023-04-25T16:45:38.093Z,20.96
2023-04-25T16:45:55.217Z,20.96
2023-04-25T16:46:01.342Z,20.96
2023-04-25T16:46:11.534Z,20.97
2023-04-25T16:46:22.556Z,20.97
2023-04-25T16:46:31.952Z,20.97
2023-04-25T16:46:42.782Z,20.96
2023-04-25T16:47:02.242Z,20.96
2023-04-25T16:47:15.675Z,20.93
2023-04-25T16:47:23.954Z,20.90
2023-04-25T16:47:33.069Z,20.88
2023-04-25T16:47:43.164Z,20.87
2023-04-25T16:47:53.312Z,20.87
2023-04-25T16:48:03.747Z,20.85
2023-04-25T16:48:14.437Z,20.82
2023-04-25T16:48:33.921Z,20.73
2023-04-25T16:48:43.907Z,20.73
2023-04-25T16:48:54.127Z,20.73
2023-04-25T16:49:04.233Z,20.71
2023-04-25T16:49:14.254Z,20.69
2023-04-25T16:49:25.065Z,20.68
2023-04-25T16:49:34.476Z,20.63
2023-04-25T16:49:44.639Z,20.61
2023-04-25T16:49:54.807Z,20.61
2023-04-25T16:50:04.922Z,20.60
2023-04-25T16:50:15.086Z,20.60
2023-04-25T16:50:25.101Z,20.63
2023-04-25T16:50:36.110Z,20.63
2023-04-25T16:50:45.353Z,20.64
2023-04-25T16:50:55.523Z,20.68
2023-04-25T16:51:05.577Z,20.72
2023-04-25T16:51:15.635Z,20.75
2023-04-25T16:51:25.792Z,20.81
2023-04-25T16:51:46.179Z,20.83
2023-04-25T16:51:56.197Z,20.85
2023-04-25T16:52:06.219Z,20.87
2023-04-25T16:52:16.767Z,20.90
2023-04-25T16:52:26.462Z,20.94
2023-04-25T16:52:36.663Z,20.97
2023-04-25T16:52:46.649Z,20.98
2023-04-25T16:52:56.951Z,20.98
2023-04-25T16:53:07.092Z,21.01
2023-04-25T16:53:17.032Z,21.03
2023-04-25T16:53:28.007Z,21.03
2023-04-25T16:53:37.308Z,21.05
2023-04-25T16:53:47.717Z,21.08
2023-04-25T16:53:58.698Z,21.11
2023-04-25T16:54:07.785Z,21.12
2023-04-25T16:54:17.778Z,21.15
2023-04-25T16:54:38.239Z,21.18
